sensor_id;sensor_type;location;lat;lon;timestamp;P1;durP1;ratioP1;P2;durP2;ratioP2
920;SDS011;447;51.332;6.778;2024-01-10T00:00:45;11.63;;;7.80;;
920;SDS011;447;51.332;6.778;2024-01-10T00:03:13;13.25;;;7.00;;
920;SDS011;447;51.332;6.778;2024-01-10T00:05:39;9.60;;;6.80;;
920;SDS011;447;51.332;6.778;2024-01-10T00:08:05;9.35;;;6.25;;
920;SDS011;447;51.332;6.778;2024-01-10T00:10:31;11.18;;;5.75;;
920;SDS011;447;51.332;6.778;2024-01-10T00:13:00;8.95;;;6.90;;
920;SDS011;447;51.332;6.778;2024-01-10T00:15:26;8.32;;;6.63;;
920;SDS011;447;51.332;6.778;2024-01-10T00:17:55;7.80;;;6.47;;
920;SDS011;447;51.332;6.778;2024-01-10T00:20:28;8.18;;;6.38;;
920;SDS011;447;51.332;6.778;2024-01-10T00:22:54;9.90;;;6.10;;
920;SDS011;447;51.332;6.778;2024-01-10T00:25:20;9.93;;;6.87;;
920;SDS011;447;51.332;6.778;2024-01-10T00:27:48;9.55;;;6.60;;
920;SDS011;447;51.332;6.778;2024-01-10T00:30:14;10.82;;;7.32;;
920;SDS011;447;51.332;6.778;2024-01-10T00:32:43;9.35;;;6.47;;
920;SDS011;447;51.332;6.778;2024-01-10T00:35:11;10.27;;;6.70;;
920;SDS011;447;51.332;6.778;2024-01-10T00:37:37;9.63;;;7.15;;
920;SDS011;447;51.332;6.778;2024-01-10T00:40:04;10.87;;;7.20;;
920;SDS011;447;51.332;6.778;2024-01-10T00:42:30;10.05;;;6.47;;
920;SDS011;447;51.332;6.778;2024-01-10T00:44:57;8.35;;;6.05;;
920;SDS011;447;51.332;6.778;2024-01-10T00:47:23;10.70;;;6.60;;
920;SDS011;447;51.332;6.778;2024-01-10T00:49:49;9.53;;;6.57;;
920;SDS011;447;51.332;6.778;2024-01-10T00:52:15;8.38;;;5.85;;
920;SDS011;447;51.332;6.778;2024-01-10T00:54:41;8.85;;;6.60;;
920;SDS011;447;51.332;6.778;2024-01-10T00:57:09;8.35;;;6.78;;
920;SDS011;447;51.332;6.778;2024-01-10T00:59:35;8.50;;;6.30;;
920;SDS011;447;51.332;6.778;2024-01-10T01:02:01;9.27;;;6.30;;
920;SDS011;447;51.332;6.778;2024-01-10T01:04:28;8.25;;;5.45;;
920;SDS011;447;51.332;6.778;2024-01-10T01:06:54;7.57;;;5.80;;
920;SDS011;447;51.332;6.778;2024-01-10T01:09:20;8.10;;;6.10;;
920;SDS011;447;51.332;6.778;2024-01-10T01:11:47;8.35;;;6.30;;
920;SDS011;447;51.332;6.778;2024-01-10T01:14:13;6.87;;;5.70;;
920;SDS011;447;51.332;6.778;2024-01-10T01:16:39;11.18;;;7.00;;
920;SDS011;447;51.332;6.778;2024-01-10T01:19:08;7.10;;;6.10;;
920;SDS011;447;51.332;6.778;2024-01-10T01:21:34;8.48;;;6.07;;
920;SDS011;447;51.332;6.778;2024-01-10T01:24:00;8.90;;;5.80;;
920;SDS011;447;51.332;6.778;2024-01-10T01:26:29;10.68;;;6.50;;
920;SDS011;447;51.332;6.778;2024-01-10T01:28:55;7.10;;;5.63;;
920;SDS011;447;51.332;6.778;2024-01-10T01:31:21;8.38;;;6.28;;
920;SDS011;447;51.332;6.778;2024-01-10T01:33:47;7.00;;;5.40;;
920;SDS011;447;51.332;6.778;2024-01-10T01:36:13;8.37;;;6.37;;
920;SDS011;447;51.332;6.778;2024-01-10T01:38:39;9.40;;;6.43;;
920;SDS011;447;51.332;6.778;2024-01-10T01:41:07;7.95;;;5.70;;
920;SDS011;447;51.332;6.778;2024-01-10T01:43:37;10.57;;;6.63;;
920;SDS011;447;51.332;6.778;2024-01-10T01:46:03;8.35;;;5.85;;
920;SDS011;447;51.332;6.778;2024-01-10T01:48:29;9.55;;;6.40;;
920;SDS011;447;51.332;6.778;2024-01-10T01:51:02;8.55;;;6.85;;
920;SDS011;447;51.332;6.778;2024-01-10T01:53:36;8.60;;;5.75;;
920;SDS011;447;51.332;6.778;2024-01-10T01:56:05;12.27;;;7.43;;
920;SDS011;447;51.332;6.778;2024-01-10T01:58:32;11.13;;;6.25;;
920;SDS011;447;51.332;6.778;2024-01-10T02:01:03;9.63;;;6.25;;
920;SDS011;447;51.332;6.778;2024-01-10T02:03:34;7.47;;;5.97;;
920;SDS011;447;51.332;6.778;2024-01-10T02:06:06;8.73;;;6.57;;
920;SDS011;447;51.332;6.778;2024-01-10T02:08:33;9.68;;;6.53;;
920;SDS011;447;51.332;6.778;2024-01-10T02:11:05;10.38;;;5.80;;
920;SDS011;447;51.332;6.778;2024-01-10T02:13:33;8.65;;;5.63;;
920;SDS011;447;51.332;6.778;2024-01-10T02:16:03;8.70;;;5.88;;
920;SDS011;447;51.332;6.778;2024-01-10T02:18:37;8.50;;;6.32;;
920;SDS011;447;51.332;6.778;2024-01-10T02:21:06;10.10;;;6.50;;
920;SDS011;447;51.332;6.778;2024-01-10T02:23:34;7.25;;;5.63;;
920;SDS011;447;51.332;6.778;2024-01-10T02:25:59;8.40;;;6.27;;
920;SDS011;447;51.332;6.778;2024-01-10T02:28:26;7.70;;;6.03;;
920;SDS011;447;51.332;6.778;2024-01-10T02:30:57;12.35;;;6.63;;
920;SDS011;447;51.332;6.778;2024-01-10T02:33:23;8.73;;;6.32;;
920;SDS011;447;51.332;6.778;2024-01-10T02:35:54;7.93;;;6.10;;
920;SDS011;447;51.332;6.778;2024-01-10T02:38:22;8.73;;;6.45;;
920;SDS011;447;51.332;6.778;2024-01-10T02:40:57;6.97;;;5.45;;
920;SDS011;447;51.332;6.778;2024-01-10T02:43:30;6.28;;;5.38;;
920;SDS011;447;51.332;6.778;2024-01-10T02:45:56;9.90;;;6.33;;
920;SDS011;447;51.332;6.778;2024-01-10T02:48:25;8.88;;;5.88;;
920;SDS011;447;51.332;6.778;2024-01-10T02:50:58;10.63;;;6.32;;
920;SDS011;447;51.332;6.778;2024-01-10T02:53:33;13.57;;;6.63;;
920;SDS011;447;51.332;6.778;2024-01-10T02:55:59;10.15;;;6.50;;
920;SDS011;447;51.332;6.778;2024-01-10T02:58:30;11.07;;;5.50;;
920;SDS011;447;51.332;6.778;2024-01-10T03:00:59;6.93;;;5.50;;
920;SDS011;447;51.332;6.778;2024-01-10T03:03:27;9.82;;;6.00;;
920;SDS011;447;51.332;6.778;2024-01-10T03:05:53;10.83;;;6.87;;
920;SDS011;447;51.332;6.778;2024-01-10T03:08:26;7.50;;;6.13;;
920;SDS011;447;51.332;6.778;2024-01-10T03:10:57;6.68;;;5.65;;
920;SDS011;447;51.332;6.778;2024-01-10T03:13:30;7.85;;;5.97;;
920;SDS011;447;51.332;6.778;2024-01-10T03:16:01;7.88;;;5.75;;
920;SDS011;447;51.332;6.778;2024-01-10T03:18:31;10.60;;;6.80;;
920;SDS011;447;51.332;6.778;2024-01-10T03:20:57;11.53;;;5.83;;
920;SDS011;447;51.332;6.778;2024-01-10T03:23:23;7.97;;;5.50;;
920;SDS011;447;51.332;6.778;2024-01-10T03:25:52;10.13;;;5.55;;
920;SDS011;447;51.332;6.778;2024-01-10T03:28:21;11.70;;;6.50;;
920;SDS011;447;51.332;6.778;2024-01-10T03:30:47;7.33;;;6.10;;
920;SDS011;447;51.332;6.778;2024-01-10T03:33:15;8.35;;;6.10;;
920;SDS011;447;51.332;6.778;2024-01-10T03:35:53;9.60;;;6.22;;
920;SDS011;447;51.332;6.778;2024-01-10T03:38:26;10.63;;;5.82;;
920;SDS011;447;51.332;6.778;2024-01-10T03:40:59;7.65;;;5.72;;
920;SDS011;447;51.332;6.778;2024-01-10T03:43:24;9.33;;;6.67;;
920;SDS011;447;51.332;6.778;2024-01-10T03:45:57;7.72;;;5.05;;
920;SDS011;447;51.332;6.778;2024-01-10T03:48:25;6.95;;;5.15;;
920;SDS011;447;51.332;6.778;2024-01-10T03:50:54;9.85;;;6.00;;
920;SDS011;447;51.332;6.778;2024-01-10T03:53:24;8.70;;;6.22;;
920;SDS011;447;51.332;6.778;2024-01-10T03:55:50;7.35;;;5.32;;
920;SDS011;447;51.332;6.778;2024-01-10T03:58:18;7.30;;;5.40;;
920;SDS011;447;51.332;6.778;2024-01-10T04:00:52;8.57;;;6.25;;
920;SDS011;447;51.332;6.778;2024-01-10T04:03:23;8.15;;;6.18;;
920;SDS011;447;51.332;6.778;2024-01-10T04:05:49;7.03;;;6.13;;
920;SDS011;447;51.332;6.778;2024-01-10T04:08:19;6.30;;;5.45;;
920;SDS011;447;51.332;6.778;2024-01-10T04:10:48;11.02;;;6.95;;
920;SDS011;447;51.332;6.778;2024-01-10T04:13:23;8.50;;;6.40;;
920;SDS011;447;51.332;6.778;2024-01-10T04:15:54;9.45;;;6.43;;
920;SDS011;447;51.332;6.778;2024-01-10T04:18:20;8.30;;;7.20;;
920;SDS011;447;51.332;6.778;2024-01-10T04:20:51;9.15;;;6.55;;
920;SDS011;447;51.332;6.778;2024-01-10T04:23:20;9.23;;;6.57;;
920;SDS011;447;51.332;6.778;2024-01-10T04:25:49;9.07;;;6.43;;
920;SDS011;447;51.332;6.778;2024-01-10T04:28:17;9.65;;;6.40;;
920;SDS011;447;51.332;6.778;2024-01-10T04:30:47;9.10;;;6.70;;
920;SDS011;447;51.332;6.778;2024-01-10T04:33:13;9.27;;;7.25;;
920;SDS011;447;51.332;6.778;2024-01-10T04:35:39;8.63;;;6.87;;
920;SDS011;447;51.332;6.778;2024-01-10T04:38:05;8.50;;;6.53;;
920;SDS011;447;51.332;6.778;2024-01-10T04:40:33;8.73;;;6.30;;
920;SDS011;447;51.332;6.778;2024-01-10T04:42:59;10.07;;;6.47;;
920;SDS011;447;51.332;6.778;2024-01-10T04:45:25;9.43;;;6.70;;
920;SDS011;447;51.332;6.778;2024-01-10T04:48:05;8.40;;;6.93;;
920;SDS011;447;51.332;6.778;2024-01-10T04:51:40;9.25;;;5.80;;
920;SDS011;447;51.332;6.778;2024-01-10T04:54:11;8.80;;;6.47;;
920;SDS011;447;51.332;6.778;2024-01-10T04:56:37;8.90;;;7.13;;
920;SDS011;447;51.332;6.778;2024-01-10T04:59:05;7.80;;;7.05;;
920;SDS011;447;51.332;6.778;2024-01-10T05:01:36;10.50;;;7.65;;
920;SDS011;447;51.332;6.778;2024-01-10T05:04:07;9.45;;;6.68;;
920;SDS011;447;51.332;6.778;2024-01-10T05:06:38;8.25;;;5.70;;
920;SDS011;447;51.332;6.778;2024-01-10T05:09:11;10.73;;;6.90;;
920;SDS011;447;51.332;6.778;2024-01-10T05:11:42;7.93;;;5.97;;
920;SDS011;447;51.332;6.778;2024-01-10T05:14:12;9.95;;;7.28;;
920;SDS011;447;51.332;6.778;2024-01-10T05:16:38;9.83;;;7.03;;
920;SDS011;447;51.332;6.778;2024-01-10T05:19:06;12.30;;;7.90;;
920;SDS011;447;51.332;6.778;2024-01-10T05:21:32;10.45;;;6.35;;
920;SDS011;447;51.332;6.778;2024-01-10T05:24:01;11.30;;;7.82;;
920;SDS011;447;51.332;6.778;2024-01-10T05:26:29;9.30;;;5.80;;
920;SDS011;447;51.332;6.778;2024-01-10T05:28:57;9.00;;;6.75;;
920;SDS011;447;51.332;6.778;2024-01-10T05:31:25;8.88;;;7.63;;
920;SDS011;447;51.332;6.778;2024-01-10T05:33:51;10.67;;;7.40;;
920;SDS011;447;51.332;6.778;2024-01-10T05:36:22;9.25;;;7.15;;
920;SDS011;447;51.332;6.778;2024-01-10T05:38:51;10.00;;;7.75;;
920;SDS011;447;51.332;6.778;2024-01-10T05:41:19;9.48;;;6.90;;
920;SDS011;447;51.332;6.778;2024-01-10T05:43:48;8.27;;;6.55;;
920;SDS011;447;51.332;6.778;2024-01-10T05:46:18;8.85;;;6.55;;
920;SDS011;447;51.332;6.778;2024-01-10T05:48:47;10.98;;;7.00;;
920;SDS011;447;51.332;6.778;2024-01-10T05:51:13;10.73;;;6.45;;
920;SDS011;447;51.332;6.778;2024-01-10T05:53:39;10.05;;;6.25;;
920;SDS011;447;51.332;6.778;2024-01-10T05:56:08;7.07;;;6.18;;
920;SDS011;447;51.332;6.778;2024-01-10T05:58:37;11.13;;;7.15;;
920;SDS011;447;51.332;6.778;2024-01-10T06:01:08;8.20;;;7.07;;
920;SDS011;447;51.332;6.778;2024-01-10T06:06:40;7.95;;;6.78;;
920;SDS011;447;51.332;6.778;2024-01-10T06:09:09;10.18;;;7.32;;
920;SDS011;447;51.332;6.778;2024-01-10T06:11:42;8.85;;;7.10;;
920;SDS011;447;51.332;6.778;2024-01-10T06:14:08;10.70;;;7.72;;
920;SDS011;447;51.332;6.778;2024-01-10T06:16:34;8.13;;;7.33;;
920;SDS011;447;51.332;6.778;2024-01-10T06:19:00;9.80;;;7.18;;
920;SDS011;447;51.332;6.778;2024-01-10T06:21:26;9.80;;;8.25;;
920;SDS011;447;51.332;6.778;2024-01-10T06:23:52;7.37;;;5.90;;
920;SDS011;447;51.332;6.778;2024-01-10T06:26:18;10.20;;;7.60;;
920;SDS011;447;51.332;6.778;2024-01-10T06:29:06;12.40;;;7.40;;
920;SDS011;447;51.332;6.778;2024-01-10T06:31:44;11.02;;;7.20;;
920;SDS011;447;51.332;6.778;2024-01-10T06:34:12;10.23;;;6.90;;
920;SDS011;447;51.332;6.778;2024-01-10T06:36:41;9.88;;;7.40;;
920;SDS011;447;51.332;6.778;2024-01-10T06:39:09;11.02;;;7.38;;
920;SDS011;447;51.332;6.778;2024-01-10T06:41:41;10.15;;;6.63;;
920;SDS011;447;51.332;6.778;2024-01-10T06:44:09;14.50;;;7.55;;
920;SDS011;447;51.332;6.778;2024-01-10T06:46:37;9.60;;;7.53;;
920;SDS011;447;51.332;6.778;2024-01-10T06:49:10;12.55;;;7.63;;
920;SDS011;447;51.332;6.778;2024-01-10T06:51:39;12.82;;;7.35;;
920;SDS011;447;51.332;6.778;2024-01-10T06:54:12;10.75;;;7.60;;
920;SDS011;447;51.332;6.778;2024-01-10T06:56:41;10.73;;;8.27;;
920;SDS011;447;51.332;6.778;2024-01-10T06:59:12;8.90;;;7.03;;
920;SDS011;447;51.332;6.778;2024-01-10T07:01:40;12.57;;;8.20;;
920;SDS011;447;51.332;6.778;2024-01-10T07:04:08;12.65;;;8.20;;
920;SDS011;447;51.332;6.778;2024-01-10T07:06:36;12.70;;;7.53;;
920;SDS011;447;51.332;6.778;2024-01-10T07:09:10;10.40;;;7.47;;
920;SDS011;447;51.332;6.778;2024-01-10T07:11:39;12.48;;;8.40;;
920;SDS011;447;51.332;6.778;2024-01-10T07:14:09;11.00;;;7.13;;
920;SDS011;447;51.332;6.778;2024-01-10T07:16:38;13.02;;;7.75;;
920;SDS011;447;51.332;6.778;2024-01-10T07:19:11;9.93;;;6.90;;
920;SDS011;447;51.332;6.778;2024-01-10T07:21:41;13.85;;;8.70;;
920;SDS011;447;51.332;6.778;2024-01-10T07:24:07;14.93;;;8.77;;
920;SDS011;447;51.332;6.778;2024-01-10T07:26:39;12.90;;;8.23;;
920;SDS011;447;51.332;6.778;2024-01-10T07:29:07;10.88;;;8.55;;
920;SDS011;447;51.332;6.778;2024-01-10T07:31:34;10.27;;;7.50;;
920;SDS011;447;51.332;6.778;2024-01-10T07:34:02;11.82;;;7.97;;
920;SDS011;447;51.332;6.778;2024-01-10T07:36:33;11.80;;;8.02;;
920;SDS011;447;51.332;6.778;2024-01-10T07:38:59;9.15;;;7.00;;
920;SDS011;447;51.332;6.778;2024-01-10T07:41:33;16.10;;;8.40;;
920;SDS011;447;51.332;6.778;2024-01-10T07:43:59;10.38;;;7.70;;
920;SDS011;447;51.332;6.778;2024-01-10T07:46:33;9.90;;;7.03;;
920;SDS011;447;51.332;6.778;2024-01-10T07:49:04;13.82;;;8.07;;
920;SDS011;447;51.332;6.778;2024-01-10T07:51:33;17.35;;;9.60;;
920;SDS011;447;51.332;6.778;2024-01-10T07:54:04;11.52;;;8.10;;
920;SDS011;447;51.332;6.778;2024-01-10T07:56:30;12.27;;;8.70;;
920;SDS011;447;51.332;6.778;2024-01-10T07:58:56;10.27;;;7.63;;
920;SDS011;447;51.332;6.778;2024-01-10T08:01:21;10.80;;;8.27;;
920;SDS011;447;51.332;6.778;2024-01-10T08:03:53;11.80;;;8.43;;
920;SDS011;447;51.332;6.778;2024-01-10T08:06:21;11.07;;;8.13;;
920;SDS011;447;51.332;6.778;2024-01-10T08:08:52;12.27;;;8.55;;
920;SDS011;447;51.332;6.778;2024-01-10T08:11:20;13.53;;;9.80;;
920;SDS011;447;51.332;6.778;2024-01-10T08:13:52;15.85;;;9.18;;
920;SDS011;447;51.332;6.778;2024-01-10T08:16:20;12.00;;;8.40;;
920;SDS011;447;51.332;6.778;2024-01-10T08:18:51;17.85;;;8.77;;
920;SDS011;447;51.332;6.778;2024-01-10T08:21:20;14.35;;;9.57;;
920;SDS011;447;51.332;6.778;2024-01-10T08:23:55;11.65;;;7.95;;
920;SDS011;447;51.332;6.778;2024-01-10T08:26:23;10.52;;;8.00;;
920;SDS011;447;51.332;6.778;2024-01-10T08:28:54;13.75;;;8.88;;
920;SDS011;447;51.332;6.778;2024-01-10T08:31:25;12.73;;;7.65;;
920;SDS011;447;51.332;6.778;2024-01-10T08:34:00;14.10;;;8.98;;
920;SDS011;447;51.332;6.778;2024-01-10T08:36:30;17.42;;;8.30;;
920;SDS011;447;51.332;6.778;2024-01-10T08:38:59;17.60;;;9.20;;
920;SDS011;447;51.332;6.778;2024-01-10T08:41:25;16.00;;;9.57;;
920;SDS011;447;51.332;6.778;2024-01-10T08:43:53;13.10;;;8.50;;
920;SDS011;447;51.332;6.778;2024-01-10T08:46:24;12.85;;;9.07;;
920;SDS011;447;51.332;6.778;2024-01-10T08:48:53;13.27;;;8.98;;
920;SDS011;447;51.332;6.778;2024-01-10T08:51:23;12.15;;;8.30;;
920;SDS011;447;51.332;6.778;2024-01-10T08:53:51;13.90;;;8.95;;
920;SDS011;447;51.332;6.778;2024-01-10T08:56:18;14.18;;;9.20;;
920;SDS011;447;51.332;6.778;2024-01-10T08:58:46;17.00;;;9.18;;
920;SDS011;447;51.332;6.778;2024-01-10T09:01:17;13.23;;;9.00;;
920;SDS011;447;51.332;6.778;2024-01-10T09:03:45;12.55;;;9.25;;
920;SDS011;447;51.332;6.778;2024-01-10T09:06:14;11.25;;;8.15;;
920;SDS011;447;51.332;6.778;2024-01-10T09:08:40;12.10;;;8.67;;
920;SDS011;447;51.332;6.778;2024-01-10T09:11:06;13.70;;;8.57;;
920;SDS011;447;51.332;6.778;2024-01-10T09:13:34;12.50;;;8.98;;
920;SDS011;447;51.332;6.778;2024-01-10T09:16:07;12.98;;;9.32;;
920;SDS011;447;51.332;6.778;2024-01-10T09:18:39;13.95;;;9.75;;
920;SDS011;447;51.332;6.778;2024-01-10T09:21:09;15.23;;;10.18;;
920;SDS011;447;51.332;6.778;2024-01-10T09:23:43;14.05;;;9.38;;
920;SDS011;447;51.332;6.778;2024-01-10T09:26:11;16.35;;;9.02;;
920;SDS011;447;51.332;6.778;2024-01-10T09:28:40;14.90;;;9.10;;
920;SDS011;447;51.332;6.778;2024-01-10T09:31:08;14.73;;;9.57;;
920;SDS011;447;51.332;6.778;2024-01-10T09:33:36;15.65;;;9.75;;
920;SDS011;447;51.332;6.778;2024-01-10T09:36:02;13.77;;;10.02;;
920;SDS011;447;51.332;6.778;2024-01-10T09:38:29;14.60;;;9.07;;
920;SDS011;447;51.332;6.778;2024-01-10T09:40:59;11.73;;;9.02;;
920;SDS011;447;51.332;6.778;2024-01-10T09:43:29;13.90;;;9.02;;
920;SDS011;447;51.332;6.778;2024-01-10T09:45:55;17.35;;;10.30;;
920;SDS011;447;51.332;6.778;2024-01-10T09:48:25;14.85;;;9.18;;
920;SDS011;447;51.332;6.778;2024-01-10T09:50:51;13.77;;;10.10;;
920;SDS011;447;51.332;6.778;2024-01-10T09:53:21;14.38;;;9.95;;
920;SDS011;447;51.332;6.778;2024-01-10T09:56:00;14.25;;;9.93;;
920;SDS011;447;51.332;6.778;2024-01-10T09:58:29;12.90;;;9.52;;
920;SDS011;447;51.332;6.778;2024-01-10T10:00:57;15.13;;;9.70;;
920;SDS011;447;51.332;6.778;2024-01-10T10:03:22;16.47;;;9.00;;
920;SDS011;447;51.332;6.778;2024-01-10T10:05:49;13.07;;;10.60;;
920;SDS011;447;51.332;6.778;2024-01-10T10:08:17;17.15;;;8.80;;
920;SDS011;447;51.332;6.778;2024-01-10T10:10:53;16.25;;;9.70;;
920;SDS011;447;51.332;6.778;2024-01-10T10:13:27;16.92;;;8.88;;
920;SDS011;447;51.332;6.778;2024-01-10T10:18:29;14.80;;;9.32;;
920;SDS011;447;51.332;6.778;2024-01-10T10:21:09;19.73;;;10.88;;
920;SDS011;447;51.332;6.778;2024-01-10T10:23:37;15.60;;;10.30;;
920;SDS011;447;51.332;6.778;2024-01-10T10:26:14;15.60;;;9.90;;
920;SDS011;447;51.332;6.778;2024-01-10T10:28:48;15.50;;;10.48;;
920;SDS011;447;51.332;6.778;2024-01-10T10:31:15;13.32;;;8.23;;
920;SDS011;447;51.332;6.778;2024-01-10T10:33:44;16.65;;;11.50;;
920;SDS011;447;51.332;6.778;2024-01-10T10:36:13;15.95;;;10.68;;
920;SDS011;447;51.332;6.778;2024-01-10T10:38:39;15.05;;;9.88;;
920;SDS011;447;51.332;6.778;2024-01-10T10:41:06;13.77;;;8.48;;
920;SDS011;447;51.332;6.778;2024-01-10T10:43:36;13.20;;;8.70;;
920;SDS011;447;51.332;6.778;2024-01-10T10:46:07;13.77;;;8.63;;
920;SDS011;447;51.332;6.778;2024-01-10T10:48:40;15.98;;;9.15;;
920;SDS011;447;51.332;6.778;2024-01-10T10:51:10;13.82;;;9.20;;
920;SDS011;447;51.332;6.778;2024-01-10T10:53:57;14.63;;;9.50;;
920;SDS011;447;51.332;6.778;2024-01-10T10:56:26;16.17;;;10.88;;
920;SDS011;447;51.332;6.778;2024-01-10T10:59:25;13.85;;;9.57;;
920;SDS011;447;51.332;6.778;2024-01-10T11:01:51;15.45;;;10.13;;
920;SDS011;447;51.332;6.778;2024-01-10T11:04:20;13.73;;;8.63;;
920;SDS011;447;51.332;6.778;2024-01-10T11:06:46;14.25;;;9.68;;
920;SDS011;447;51.332;6.778;2024-01-10T11:09:12;17.05;;;11.32;;
920;SDS011;447;51.332;6.778;2024-01-10T11:19:39;16.00;;;10.35;;
920;SDS011;447;51.332;6.778;2024-01-10T11:24:50;14.25;;;9.40;;
920;SDS011;447;51.332;6.778;2024-01-10T11:27:17;16.63;;;10.27;;
920;SDS011;447;51.332;6.778;2024-01-10T11:29:45;15.60;;;10.02;;
920;SDS011;447;51.332;6.778;2024-01-10T11:32:15;17.95;;;10.57;;
920;SDS011;447;51.332;6.778;2024-01-10T11:34:49;13.68;;;10.20;;
920;SDS011;447;51.332;6.778;2024-01-10T11:37:20;13.35;;;8.82;;
920;SDS011;447;51.332;6.778;2024-01-10T11:39:46;15.97;;;10.03;;
920;SDS011;447;51.332;6.778;2024-01-10T11:42:40;12.77;;;9.30;;
920;SDS011;447;51.332;6.778;2024-01-10T11:45:07;17.35;;;10.13;;
920;SDS011;447;51.332;6.778;2024-01-10T11:47:33;14.88;;;9.88;;
920;SDS011;447;51.332;6.778;2024-01-10T11:50:01;15.30;;;10.07;;
920;SDS011;447;51.332;6.778;2024-01-10T11:52:32;16.02;;;10.13;;
920;SDS011;447;51.332;6.778;2024-01-10T11:54:59;16.80;;;9.38;;
920;SDS011;447;51.332;6.778;2024-01-10T11:57:27;11.05;;;8.20;;
920;SDS011;447;51.332;6.778;2024-01-10T11:59:55;15.05;;;9.18;;
920;SDS011;447;51.332;6.778;2024-01-10T12:02:22;16.83;;;9.90;;
920;SDS011;447;51.332;6.778;2024-01-10T12:04:52;13.50;;;9.10;;
920;SDS011;447;51.332;6.778;2024-01-10T12:07:21;16.00;;;10.07;;
920;SDS011;447;51.332;6.778;2024-01-10T12:09:49;18.95;;;9.45;;
920;SDS011;447;51.332;6.778;2024-01-10T12:12:15;14.30;;;9.35;;
920;SDS011;447;51.332;6.778;2024-01-10T12:14:41;12.70;;;9.80;;
920;SDS011;447;51.332;6.778;2024-01-10T12:17:10;15.68;;;9.27;;
920;SDS011;447;51.332;6.778;2024-01-10T12:19:36;14.65;;;9.88;;
920;SDS011;447;51.332;6.778;2024-01-10T12:22:09;16.38;;;10.18;;
920;SDS011;447;51.332;6.778;2024-01-10T12:24:47;16.48;;;9.55;;
920;SDS011;447;51.332;6.778;2024-01-10T12:27:18;11.77;;;9.27;;
920;SDS011;447;51.332;6.778;2024-01-10T12:29:47;14.27;;;9.38;;
920;SDS011;447;51.332;6.778;2024-01-10T12:32:19;15.75;;;9.77;;
920;SDS011;447;51.332;6.778;2024-01-10T12:34:47;13.38;;;9.50;;
920;SDS011;447;51.332;6.778;2024-01-10T12:37:13;16.87;;;10.57;;
920;SDS011;447;51.332;6.778;2024-01-10T12:39:43;13.90;;;9.05;;
920;SDS011;447;51.332;6.778;2024-01-10T12:42:09;16.30;;;9.30;;
920;SDS011;447;51.332;6.778;2024-01-10T12:44:35;12.32;;;9.30;;
920;SDS011;447;51.332;6.778;2024-01-10T12:47:01;17.77;;;10.63;;
920;SDS011;447;51.332;6.778;2024-01-10T12:49:28;13.02;;;9.10;;
920;SDS011;447;51.332;6.778;2024-01-10T12:51:54;13.98;;;8.90;;
920;SDS011;447;51.332;6.778;2024-01-10T12:54:20;13.15;;;9.00;;
920;SDS011;447;51.332;6.778;2024-01-10T12:56:46;16.02;;;9.88;;
920;SDS011;447;51.332;6.778;2024-01-10T12:59:14;13.38;;;8.90;;
920;SDS011;447;51.332;6.778;2024-01-10T13:01:43;16.73;;;9.88;;
920;SDS011;447;51.332;6.778;2024-01-10T13:04:08;12.30;;;9.40;;
920;SDS011;447;51.332;6.778;2024-01-10T13:06:39;12.75;;;9.00;;
920;SDS011;447;51.332;6.778;2024-01-10T13:09:07;14.48;;;10.05;;
920;SDS011;447;51.332;6.778;2024-01-10T13:11:35;16.25;;;10.13;;
920;SDS011;447;51.332;6.778;2024-01-10T13:14:01;13.90;;;9.20;;
920;SDS011;447;51.332;6.778;2024-01-10T13:16:29;15.88;;;10.50;;
920;SDS011;447;51.332;6.778;2024-01-10T13:18:56;16.27;;;9.95;;
920;SDS011;447;51.332;6.778;2024-01-10T13:21:25;17.00;;;10.10;;
920;SDS011;447;51.332;6.778;2024-01-10T13:23:52;13.25;;;9.77;;
920;SDS011;447;51.332;6.778;2024-01-10T13:26:18;15.10;;;9.30;;
920;SDS011;447;51.332;6.778;2024-01-10T13:28:44;15.93;;;8.85;;
920;SDS011;447;51.332;6.778;2024-01-10T13:31:10;13.30;;;9.40;;
920;SDS011;447;51.332;6.778;2024-01-10T13:33:36;10.15;;;8.52;;
920;SDS011;447;51.332;6.778;2024-01-10T13:36:03;13.80;;;8.70;;
920;SDS011;447;51.332;6.778;2024-01-10T13:38:30;15.40;;;10.00;;
920;SDS011;447;51.332;6.778;2024-01-10T13:40:56;14.48;;;8.60;;
920;SDS011;447;51.332;6.778;2024-01-10T13:43:26;11.65;;;8.50;;
920;SDS011;447;51.332;6.778;2024-01-10T13:45:53;12.73;;;8.13;;
920;SDS011;447;51.332;6.778;2024-01-10T13:48:19;13.63;;;9.57;;
920;SDS011;447;51.332;6.778;2024-01-10T13:50:45;15.47;;;9.27;;
920;SDS011;447;51.332;6.778;2024-01-10T13:53:12;15.75;;;9.85;;
920;SDS011;447;51.332;6.778;2024-01-10T13:55:38;13.65;;;8.68;;
920;SDS011;447;51.332;6.778;2024-01-10T13:58:04;14.93;;;9.57;;
920;SDS011;447;51.332;6.778;2024-01-10T14:00:30;12.43;;;9.27;;
920;SDS011;447;51.332;6.778;2024-01-10T14:02:56;11.43;;;8.98;;
920;SDS011;447;51.332;6.778;2024-01-10T14:05:27;14.18;;;8.63;;
920;SDS011;447;51.332;6.778;2024-01-10T14:07:54;11.40;;;8.18;;
920;SDS011;447;51.332;6.778;2024-01-10T14:13:38;15.60;;;9.50;;
920;SDS011;447;51.332;6.778;2024-01-10T14:16:04;14.20;;;9.23;;
920;SDS011;447;51.332;6.778;2024-01-10T14:18:30;13.10;;;9.63;;
920;SDS011;447;51.332;6.778;2024-01-10T14:20:56;14.27;;;9.23;;
920;SDS011;447;51.332;6.778;2024-01-10T14:23:24;13.15;;;8.75;;
920;SDS011;447;51.332;6.778;2024-01-10T14:25:50;10.82;;;8.73;;
920;SDS011;447;51.332;6.778;2024-01-10T14:28:19;13.85;;;9.18;;
920;SDS011;447;51.332;6.778;2024-01-10T14:30:48;16.77;;;9.73;;
920;SDS011;447;51.332;6.778;2024-01-10T14:40:15;15.80;;;9.85;;
920;SDS011;447;51.332;6.778;2024-01-10T14:42:41;13.95;;;8.73;;
920;SDS011;447;51.332;6.778;2024-01-10T14:45:07;13.02;;;8.45;;
920;SDS011;447;51.332;6.778;2024-01-10T14:47:34;15.85;;;9.90;;
920;SDS011;447;51.332;6.778;2024-01-10T14:50:03;14.10;;;9.23;;
920;SDS011;447;51.332;6.778;2024-01-10T14:52:30;14.38;;;8.80;;
920;SDS011;447;51.332;6.778;2024-01-10T14:54:58;16.08;;;10.07;;
920;SDS011;447;51.332;6.778;2024-01-10T14:57:24;14.73;;;8.70;;
920;SDS011;447;51.332;6.778;2024-01-10T14:59:50;15.97;;;9.20;;
920;SDS011;447;51.332;6.778;2024-01-10T15:02:19;15.23;;;9.15;;
920;SDS011;447;51.332;6.778;2024-01-10T15:04:45;13.05;;;8.68;;
920;SDS011;447;51.332;6.778;2024-01-10T15:07:11;13.82;;;9.10;;
920;SDS011;447;51.332;6.778;2024-01-10T15:09:38;15.55;;;9.13;;
920;SDS011;447;51.332;6.778;2024-01-10T15:12:04;14.70;;;9.40;;
920;SDS011;447;51.332;6.778;2024-01-10T15:14:34;14.00;;;8.70;;
920;SDS011;447;51.332;6.778;2024-01-10T15:17:04;14.20;;;8.85;;
920;SDS011;447;51.332;6.778;2024-01-10T15:19:36;13.77;;;8.85;;
920;SDS011;447;51.332;6.778;2024-01-10T15:22:07;11.43;;;8.45;;
920;SDS011;447;51.332;6.778;2024-01-10T15:24:33;14.95;;;10.27;;
920;SDS011;447;51.332;6.778;2024-01-10T15:27:01;12.30;;;9.68;;
920;SDS011;447;51.332;6.778;2024-01-10T15:29:39;16.80;;;9.30;;
920;SDS011;447;51.332;6.778;2024-01-10T15:32:05;13.75;;;9.00;;
920;SDS011;447;51.332;6.778;2024-01-10T15:34:32;16.05;;;9.65;;
920;SDS011;447;51.332;6.778;2024-01-10T15:36:58;14.43;;;10.05;;
920;SDS011;447;51.332;6.778;2024-01-10T15:39:25;14.93;;;9.10;;
920;SDS011;447;51.332;6.778;2024-01-10T15:41:53;15.13;;;9.13;;
920;SDS011;447;51.332;6.778;2024-01-10T15:44:20;13.70;;;9.90;;
920;SDS011;447;51.332;6.778;2024-01-10T15:46:48;15.27;;;9.80;;
920;SDS011;447;51.332;6.778;2024-01-10T15:49:14;16.40;;;10.90;;
920;SDS011;447;51.332;6.778;2024-01-10T15:51:40;15.93;;;9.32;;
920;SDS011;447;51.332;6.778;2024-01-10T15:54:07;15.27;;;9.07;;
920;SDS011;447;51.332;6.778;2024-01-10T15:56:33;14.55;;;9.32;;
920;SDS011;447;51.332;6.778;2024-01-10T15:59:04;14.88;;;9.27;;
920;SDS011;447;51.332;6.778;2024-01-10T16:01:34;21.40;;;9.90;;
920;SDS011;447;51.332;6.778;2024-01-10T16:04:00;15.50;;;9.85;;
920;SDS011;447;51.332;6.778;2024-01-10T16:06:27;13.15;;;8.88;;
920;SDS011;447;51.332;6.778;2024-01-10T16:08:56;12.88;;;8.82;;